createdAt,value
2016-02-29T00:00:03.090Z,20
2016-02-29T00:01:03.076Z,19.93
2016-02-29T00:02:03.048Z,19.95
2016-02-29T00:03:03.082Z,19.93
2016-02-29T00:04:03.022Z,19.95
2016-02-29T00:05:02.993Z,19.91
2016-02-29T00:06:03.559Z,20.05
2016-02-29T00:07:02.967Z,19.91
2016-02-29T00:08:02.970Z,19.9
2016-02-29T00:09:02.926Z,19.93
2016-02-29T00:10:02.914Z,19.94
2016-02-29T00:11:02.885Z,19.94
2016-02-29T00:12:02.872Z,19.95
2016-02-29T00:13:02.859Z,19.94
2016-02-29T00:14:02.831Z,19.91
2016-02-29T00:15:02.817Z,19.94
2016-02-29T00:16:02.805Z,19.97
2016-02-29T00:17:02.792Z,19.91
2016-02-29T00:18:02.795Z,19.94
2016-02-29T00:19:02.750Z,19.91
2016-02-29T00:20:02.738Z,19.91
2016-02-29T00:21:02.708Z,19.88
2016-02-29T00:22:02.696Z,19.95
2016-02-29T00:23:02.667Z,19.94
2016-02-29T00:24:02.669Z,19.95
2016-02-29T00:25:02.657Z,19.97
2016-02-29T00:26:02.628Z,19.95
2016-02-29T00:27:02.616Z,19.98
2016-02-29T00:28:02.587Z,19.93
2016-02-29T00:29:02.590Z,19.91
2016-02-29T00:30:02.551Z,19.93
2016-02-29T00:31:02.537Z,19.97
2016-02-29T00:32:02.525Z,19.86
2016-02-29T00:33:02.511Z,19.9
2016-02-29T00:34:02.483Z,19.91
2016-02-29T00:35:02.454Z,19.9
2016-02-29T00:36:02.441Z,19.88
2016-02-29T00:37:02.428Z,19.94
2016-02-29T00:38:02.416Z,19.93
2016-02-29T00:39:02.402Z,19.9
2016-02-29T00:40:02.389Z,19.83
2016-02-29T00:41:02.377Z,19.86
2016-02-29T00:42:02.348Z,19.87
2016-02-29T00:43:02.319Z,19.91
2016-02-29T00:44:02.307Z,19.87
2016-02-29T00:45:02.278Z,19.9
2016-02-29T00:46:02.265Z,19.87
2016-02-29T00:47:02.268Z,19.9
2016-02-29T00:48:02.239Z,19.94
2016-02-29T00:49:02.210Z,19.9
2016-02-29T00:50:02.213Z,19.83
2016-02-29T00:51:02.185Z,19.91
2016-02-29T00:52:02.171Z,19.9
2016-02-29T00:53:02.143Z,19.9
2016-02-29T00:54:02.130Z,19.86
2016-02-29T00:55:02.101Z,19.86
2016-02-29T00:56:02.104Z,19.79
2016-02-29T00:57:02.076Z,19.91
2016-02-29T00:58:02.063Z,19.84
2016-02-29T00:59:02.034Z,19.93
2016-02-29T01:00:02.021Z,19.9
2016-02-29T01:01:02.008Z,19.83
2016-02-29T01:02:01.980Z,19.9
2016-02-29T01:03:01.967Z,19.9
2016-02-29T01:04:01.954Z,19.91
2016-02-29T01:05:01.941Z,19.88
2016-02-29T01:06:01.928Z,19.84
2016-02-29T01:07:01.900Z,19.84
2016-02-29T01:08:01.886Z,19.83
2016-02-29T01:09:01.858Z,19.87
2016-02-29T01:10:01.844Z,19.91
2016-02-29T01:11:01.832Z,19.78
2016-02-29T01:12:01.803Z,19.93
2016-02-29T01:13:01.791Z,19.87
2016-02-29T01:14:01.778Z,19.8
2016-02-29T01:15:01.765Z,19.9
2016-02-29T01:16:01.736Z,19.84
2016-02-29T01:17:01.739Z,19.83
2016-02-29T01:18:01.695Z,19.83
2016-02-29T01:19:01.697Z,19.83
2016-02-29T01:20:01.668Z,19.83
2016-02-29T01:21:01.657Z,19.83
2016-02-29T01:22:01.643Z,19.8
2016-02-29T01:23:01.630Z,19.84
2016-02-29T01:24:01.602Z,19.84
2016-02-29T01:25:01.588Z,19.79
2016-02-29T01:26:01.576Z,19.87
2016-02-29T01:27:01.548Z,19.78
2016-02-29T01:28:01.535Z,19.87
2016-02-29T01:29:01.520Z,19.83
2016-02-29T01:30:01.492Z,19.84
2016-02-29T01:31:01.479Z,19.83
2016-02-29T01:32:01.467Z,19.84
2016-02-29T01:33:01.438Z,19.83
2016-02-29T01:34:01.426Z,19.87
2016-02-29T01:35:01.412Z,19.83
2016-02-29T01:36:01.384Z,19.86
2016-02-29T01:37:01.387Z,19.75
2016-02-29T01:38:01.358Z,19.79
2016-02-29T01:39:01.329Z,19.78
2016-02-29T01:40:01.316Z,19.79
2016-02-29T01:41:01.303Z,19.79
2016-02-29T01:42:01.291Z,19.79
2016-02-29T01:43:01.261Z,19.8
2016-02-29T01:44:01.249Z,19.8
2016-02-29T01:45:01.236Z,19.76
2016-02-29T01:46:01.208Z,19.78
2016-02-29T01:47:01.194Z,19.78
2016-02-29T01:48:01.182Z,19.84
2016-02-29T01:49:01.153Z,19.8
2016-02-29T01:50:01.155Z,19.8
2016-02-29T01:51:01.127Z,19.76
2016-02-29T01:52:01.099Z,19.79
2016-02-29T01:53:01.102Z,19.84
2016-02-29T01:54:01.058Z,19.84
2016-02-29T01:55:01.044Z,19.83
2016-02-29T01:56:01.047Z,19.78
2016-02-29T01:57:01.019Z,19.75
2016-02-29T01:58:01.006Z,19.75
2016-02-29T01:59:00.977Z,19.78
2016-02-29T02:00:00.962Z,19.76
2016-02-29T02:01:00.918Z,19.83
2016-02-29T02:02:00.906Z,19.78
2016-02-29T02:03:00.847Z,19.76
2016-02-29T02:04:00.835Z,19.8
2016-02-29T02:05:00.808Z,19.78
2016-02-29T02:06:00.761Z,19.83
2016-02-29T02:07:00.758Z,19.86
2016-02-29T02:08:00.725Z,19.76
2016-02-29T02:09:00.722Z,19.78
2016-02-29T02:10:00.672Z,19.83
2016-02-29T02:11:00.654Z,19.83
2016-02-29T02:12:00.640Z,19.84
2016-02-29T02:13:00.625Z,19.79
2016-02-29T02:14:00.594Z,19.84
2016-02-29T02:15:00.579Z,19.84
2016-02-29T02:16:00.565Z,19.76
2016-02-29T02:17:00.535Z,19.83
2016-02-29T02:18:00.537Z,19.84
2016-02-29T02:19:00.492Z,19.78
2016-02-29T02:20:00.509Z,19.76
2016-02-29T02:21:00.465Z,19.75
2016-02-29T02:22:00.467Z,19.78
2016-02-29T02:23:00.440Z,19.76
2016-02-29T02:24:00.411Z,19.78
2016-02-29T02:25:00.398Z,19.72
2016-02-29T02:26:00.370Z,19.79
2016-02-29T02:27:00.200Z,19.79
2016-02-29T02:28:00.344Z,19.7
2016-02-29T02:29:00.330Z,19.84
2016-02-29T02:30:00.302Z,19.76
2016-02-29T02:31:00.288Z,19.8
2016-02-29T02:32:00.276Z,19.78
2016-02-29T02:33:00.248Z,19.73
2016-02-29T02:34:00.235Z,19.76
2016-02-29T02:35:00.238Z,19.72
2016-02-29T02:36:00.208Z,19.8
2016-02-29T02:37:00.196Z,19.72
2016-02-29T02:38:00.167Z,19.75
2016-02-29T02:39:00.154Z,19.73
2016-02-29T02:40:00.126Z,19.72
2016-02-29T02:41:00.113Z,19.72
2016-02-29T02:41:59.943Z,19.78
2016-02-29T02:43:00.087Z,19.75
2016-02-29T02:44:00.058Z,19.68
2016-02-29T02:45:00.030Z,19.78
2016-02-29T02:46:00.032Z,19.69
2016-02-29T02:47:00.004Z,19.75
2016-02-29T02:48:00.007Z,19.72
2016-02-29T02:48:59.978Z,19.65
2016-02-29T02:49:59.948Z,19.73
2016-02-29T02:50:59.937Z,19.76
2016-02-29T02:51:59.939Z,19.65
2016-02-29T02:52:59.911Z,19.69
2016-02-29T02:53:59.882Z,19.78
2016-02-29T02:54:59.869Z,19.75
2016-02-29T02:55:59.840Z,19.76
2016-02-29T02:56:59.843Z,19.72
2016-02-29T02:57:59.799Z,19.66
2016-02-29T02:58:59.803Z,19.69
2016-02-29T02:59:59.633Z,19.68
2016-02-29T03:00:59.761Z,19.66
2016-02-29T03:01:59.747Z,19.7
2016-02-29T03:02:59.719Z,19.7
2016-02-29T03:03:59.722Z,19.65
2016-02-29T03:04:59.678Z,19.68
2016-02-29T03:05:59.680Z,19.63
2016-02-29T03:06:59.652Z,19.66
2016-02-29T03:07:59.639Z,19.69
2016-02-29T03:08:59.625Z,19.66
2016-02-29T03:09:59.597Z,19.68
2016-02-29T03:10:59.585Z,19.63
2016-02-29T03:11:59.587Z,19.63
2016-02-29T03:12:59.558Z,19.65
2016-02-29T03:13:59.530Z,19.65
2016-02-29T03:14:59.516Z,19.63
2016-02-29T03:15:59.488Z,19.66
2016-02-29T03:16:59.476Z,19.66
2016-02-29T03:17:59.447Z,19.68
2016-02-29T03:18:59.434Z,19.63
2016-02-29T03:19:59.421Z,19.63
2016-02-29T03:20:59.392Z,19.6
2016-02-29T03:21:59.395Z,19.66
2016-02-29T03:22:59.366Z,19.68
2016-02-29T03:23:59.338Z,19.69
2016-02-29T03:24:59.325Z,19.7
2016-02-29T03:25:59.312Z,19.63
2016-02-29T03:26:59.330Z,19.63
2016-02-29T03:27:59.270Z,19.61
2016-02-29T03:28:59.101Z,19.58
2016-02-29T03:29:59.229Z,19.6
2016-02-29T03:30:59.232Z,19.69
2016-02-29T03:31:59.203Z,19.66
2016-02-29T03:32:59.190Z,19.66
2016-02-29T03:33:59.177Z,19.57
2016-02-29T03:34:59.150Z,19.75
2016-02-29T03:35:59.136Z,19.6
2016-02-29T03:36:59.123Z,19.75
2016-02-29T03:37:59.094Z,19.58
2016-02-29T03:38:59.081Z,19.63
2016-02-29T03:39:59.052Z,19.6
2016-02-29T03:40:59.040Z,19.57
2016-02-29T03:41:59.042Z,19.6
2016-02-29T03:42:59.013Z,19.69
2016-02-29T03:43:58.986Z,19.58
2016-02-29T03:44:58.972Z,19.58
2016-02-29T03:45:58.959Z,19.6
2016-02-29T03:46:58.946Z,19.68
2016-02-29T03:47:58.949Z,19.55
2016-02-29T03:48:58.905Z,19.58
2016-02-29T03:49:58.893Z,19.55
2016-02-29T03:50:58.879Z,19.7
2016-02-29T03:51:58.851Z,19.66
2016-02-29T03:52:58.837Z,19.6
2016-02-29T03:53:58.826Z,19.6
2016-02-29T03:54:58.796Z,19.55
2016-02-29T03:55:58.784Z,19.57
2016-02-29T03:56:58.786Z,19.58
2016-02-29T03:57:58.726Z,19.69
2016-02-29T03:58:58.729Z,19.58
2016-02-29T03:59:58.717Z,19.58
2016-02-29T04:00:58.687Z,19.65
2016-02-29T04:01:58.675Z,19.57
2016-02-29T04:02:58.662Z,19.61
2016-02-29T04:03:58.634Z,19.65
2016-02-29T04:04:58.620Z,19.58
2016-02-29T04:05:58.592Z,19.6
2016-02-29T04:06:58.595Z,19.51
2016-02-29T04:07:58.581Z,19.55
2016-02-29T04:08:58.536Z,19.73
2016-02-29T04:09:58.539Z,19.66
2016-02-29T04:10:58.511Z,19.54
2016-02-29T04:11:58.513Z,19.57
2016-02-29T04:12:58.485Z,19.63
2016-02-29T04:13:58.457Z,19.57
2016-02-29T04:14:58.428Z,19.68
2016-02-29T04:15:58.415Z,19.6
2016-02-29T04:16:58.433Z,19.57
2016-02-29T04:17:58.389Z,19.68
2016-02-29T04:18:58.377Z,19.58
2016-02-29T04:19:58.348Z,19.7
2016-02-29T04:20:58.351Z,19.57
2016-02-29T04:21:58.322Z,19.6
2016-02-29T04:22:58.293Z,19.6
2016-02-29T04:23:58.296Z,19.6
2016-02-29T04:24:58.283Z,19.51
2016-02-29T04:25:58.254Z,19.54
2016-02-29T04:26:58.226Z,19.7
2016-02-29T04:27:58.198Z,19.66
2016-02-29T04:28:58.186Z,19.63
2016-02-29T04:29:58.172Z,19.69
2016-02-29T04:30:58.004Z,19.61
2016-02-29T04:31:58.132Z,19.65
2016-02-29T04:32:58.118Z,19.58
2016-02-29T04:33:58.090Z,19.57
2016-02-29T04:34:58.076Z,19.66
2016-02-29T04:35:58.049Z,19.6
2016-02-29T04:36:58.051Z,19.6
2016-02-29T04:37:58.023Z,19.6
2016-02-29T04:38:58.009Z,19.57
2016-02-29T04:39:57.996Z,19.68
2016-02-29T04:40:57.968Z,19.54
2016-02-29T04:41:57.954Z,19.58
2016-02-29T04:42:57.942Z,19.58
2016-02-29T04:43:57.929Z,19.54
2016-02-29T04:44:57.900Z,19.57
2016-02-29T04:45:57.887Z,19.58
2016-02-29T04:46:57.718Z,19.58
2016-02-29T04:47:57.845Z,19.57
2016-02-29T04:48:57.834Z,19.57
2016-02-29T04:49:57.820Z,19.55
2016-02-29T04:50:57.792Z,19.55
2016-02-29T04:51:57.778Z,19.61
2016-02-29T04:52:57.766Z,19.57
2016-02-29T04:53:57.737Z,19.58
2016-02-29T04:54:57.724Z,19.55
2016-02-29T04:55:57.711Z,19.57
2016-02-29T04:56:57.683Z,19.6
2016-02-29T04:57:57.670Z,19.57
2016-02-29T04:58:57.657Z,19.51
2016-02-29T04:59:57.628Z,19.53
2016-02-29T05:00:57.615Z,19.54
2016-02-29T05:01:57.603Z,19.65
2016-02-29T05:02:57.574Z,19.6
2016-02-29T05:03:57.561Z,19.55
2016-02-29T05:04:57.548Z,19.57
2016-02-29T05:05:57.679Z,19.51
2016-02-29T05:06:57.510Z,19.6
2016-02-29T05:07:57.496Z,19.68
2016-02-29T05:08:57.468Z,19.63
2016-02-29T05:09:57.455Z,19.58
2016-02-29T05:10:57.426Z,19.55
2016-02-29T05:11:57.429Z,19.61
2016-02-29T05:12:57.400Z,19.57
2016-02-29T05:13:57.387Z,19.57
2016-02-29T05:14:57.376Z,19.55
2016-02-29T05:15:57.346Z,19.51
2016-02-29T05:16:57.318Z,19.54
2016-02-29T05:17:57.320Z,19.57
2016-02-29T05:18:57.292Z,19.54
2016-02-29T05:19:57.278Z,19.6
2016-02-29T05:20:57.266Z,19.58
2016-02-29T05:21:57.237Z,19.57
2016-02-29T05:22:57.224Z,19.58
2016-02-29T05:23:57.195Z,19.6
2016-02-29T05:24:57.198Z,19.63
2016-02-29T05:25:57.169Z,19.57
2016-02-29T05:26:57.157Z,19.55
2016-02-29T05:27:57.144Z,19.58
2016-02-29T05:28:57.116Z,19.58
2016-02-29T05:29:57.102Z,19.55
2016-02-29T05:30:57.074Z,19.55
2016-02-29T05:31:57.060Z,19.6
2016-02-29T05:32:57.032Z,19.58
2016-02-29T05:33:57.036Z,19.54
2016-02-29T05:34:57.022Z,19.57
2016-02-29T05:35:56.994Z,19.53
2016-02-29T05:36:56.965Z,19.58
2016-02-29T05:37:56.952Z,19.58
2016-02-29T05:38:56.940Z,19.63
2016-02-29T05:39:56.927Z,19.61
2016-02-29T05:40:56.898Z,19.57
2016-02-29T05:41:56.885Z,19.65
2016-02-29T05:42:56.856Z,19.58
2016-02-29T05:43:56.844Z,19.55
2016-02-29T05:44:56.845Z,19.61
2016-02-29T05:45:56.818Z,19.65
2016-02-29T05:46:56.790Z,19.51
2016-02-29T05:47:56.776Z,19.55
2016-02-29T05:48:56.748Z,19.58
2016-02-29T05:49:56.735Z,19.55
2016-02-29T05:50:56.737Z,19.58
2016-02-29T05:51:56.709Z,19.61
2016-02-29T05:52:56.681Z,19.53
2016-02-29T05:53:56.667Z,19.55
2016-02-29T05:54:56.654Z,19.54
2016-02-29T05:55:56.625Z,19.63
2016-02-29T05:56:56.644Z,19.54
2016-02-29T05:57:56.623Z,19.54
2016-02-29T05:58:56.592Z,19.54
2016-02-29T05:59:56.656Z,19.53
2016-02-29T06:01:04.020Z,19.58
2016-02-29T06:01:56.522Z,19.53
2016-02-29T06:02:56.525Z,19.58
2016-02-29T06:03:56.481Z,19.5
2016-02-29T06:04:56.468Z,19.55
2016-02-29T06:05:56.472Z,19.61
2016-02-29T06:06:56.442Z,19.54
2016-02-29T06:07:56.414Z,19.54
2016-02-29T06:08:56.400Z,19.58
2016-02-29T06:09:56.372Z,19.53
2016-02-29T06:10:56.375Z,19.58
2016-02-29T06:11:56.347Z,19.55
2016-02-29T06:12:56.318Z,19.58
2016-02-29T06:13:56.321Z,19.55
2016-02-29T06:14:56.135Z,19.55
2016-02-29T06:15:56.264Z,19.58
2016-02-29T06:16:56.251Z,19.6
2016-02-29T06:17:56.230Z,19.57
2016-02-29T06:18:56.249Z,19.58
2016-02-29T06:19:56.204Z,19.55
2016-02-29T06:20:56.176Z,19.55
2016-02-29T06:21:56.178Z,19.57
2016-02-29T06:22:56.134Z,19.58
2016-02-29T06:23:56.121Z,19.61
2016-02-29T06:24:56.124Z,19.55
2016-02-29T06:25:56.095Z,19.58
2016-02-29T06:26:56.082Z,19.55
2016-02-29T06:27:56.069Z,19.55
2016-02-29T06:28:56.040Z,19.54
2016-02-29T06:29:56.043Z,19.55
2016-02-29T06:30:56.015Z,19.58
2016-02-29T06:31:55.986Z,19.58
2016-02-29T06:32:55.973Z,19.55
2016-02-29T06:33:55.944Z,19.58
2016-02-29T06:34:55.931Z,19.63
2016-02-29T06:35:55.919Z,19.55
2016-02-29T06:36:55.906Z,19.51
2016-02-29T06:37:55.909Z,19.55
2016-02-29T06:38:55.864Z,19.6
2016-02-29T06:39:55.852Z,19.61
2016-02-29T06:40:55.822Z,19.53
2016-02-29T06:41:55.810Z,19.61
2016-02-29T06:42:55.797Z,19.55
2016-02-29T06:43:55.784Z,19.57
2016-02-29T06:44:55.755Z,19.54
2016-02-29T06:45:55.727Z,19.55
2016-02-29T06:46:55.713Z,19.53
2016-02-29T06:47:55.717Z,19.58
2016-02-29T06:48:55.688Z,19.65
2016-02-29T06:49:55.519Z,19.51
2016-02-29T06:50:55.646Z,19.57
2016-02-29T06:51:55.618Z,19.69
2016-02-29T06:52:55.605Z,19.55
2016-02-29T06:53:55.607Z,19.55
2016-02-29T06:54:55.595Z,19.6
2016-02-29T06:55:55.551Z,19.58
2016-02-29T06:56:55.538Z,19.65
2016-02-29T06:57:55.509Z,19.57
2016-02-29T06:58:55.496Z,19.6
2016-02-29T06:59:55.498Z,19.55
2016-02-29T07:00:55.487Z,19.6
2016-02-29T07:01:55.457Z,19.6
2016-02-29T07:02:55.429Z,19.54
2016-02-29T07:03:55.431Z,19.55
2016-02-29T07:04:55.419Z,19.61
2016-02-29T07:05:55.375Z,19.54
2016-02-29T07:06:55.361Z,19.6
2016-02-29T07:07:55.348Z,19.55
2016-02-29T07:08:55.336Z,19.61
2016-02-29T07:09:55.307Z,19.57
2016-02-29T07:10:55.278Z,19.54
2016-02-29T07:11:55.266Z,19.54
2016-02-29T07:12:55.252Z,19.57
2016-02-29T07:13:55.239Z,19.6
2016-02-29T07:14:55.211Z,19.55
2016-02-29T07:15:55.199Z,19.54
2016-02-29T07:16:55.185Z,19.6
2016-02-29T07:17:55.172Z,19.57
2016-02-29T07:18:55.144Z,19.54
2016-02-29T07:19:55.131Z,19.55
2016-02-29T07:20:55.118Z,19.54
2016-02-29T07:21:55.090Z,19.55
2016-02-29T07:22:55.060Z,19.57
2016-02-29T07:23:55.063Z,19.53
2016-02-29T07:24:55.051Z,19.55
2016-02-29T07:25:55.006Z,19.57
2016-02-29T07:26:54.994Z,19.53
2016-02-29T07:27:54.824Z,19.55
2016-02-29T07:28:54.984Z,19.57
2016-02-29T07:29:54.954Z,19.58
2016-02-29T07:30:54.926Z,19.57
2016-02-29T07:31:54.913Z,19.53
2016-02-29T07:32:54.900Z,19.58
2016-02-29T07:33:54.872Z,19.6
2016-02-29T07:34:54.859Z,19.57
2016-02-29T07:35:54.830Z,19.42
2016-02-29T07:36:54.817Z,19.53
2016-02-29T07:37:54.804Z,19.53
2016-02-29T07:38:54.791Z,19.58
2016-02-29T07:39:54.779Z,19.53
2016-02-29T07:40:54.750Z,19.55
2016-02-29T07:41:54.753Z,19.55
2016-02-29T07:42:54.724Z,19.57
2016-02-29T07:43:54.711Z,19.54
2016-02-29T07:44:54.698Z,19.55
2016-02-29T07:45:54.655Z,19.58
2016-02-29T07:46:54.641Z,19.55
2016-02-29T07:47:54.628Z,19.57
2016-02-29T07:48:54.616Z,19.58
2016-02-29T07:49:54.586Z,19.57
2016-02-29T07:50:54.574Z,19.57
2016-02-29T07:51:54.560Z,19.69
2016-02-29T07:52:54.532Z,19.55
2016-02-29T07:53:54.504Z,19.57
2016-02-29T07:54:54.507Z,19.57
2016-02-29T07:55:54.477Z,19.53
2016-02-29T07:56:54.465Z,19.65
2016-02-29T07:57:54.452Z,19.55
2016-02-29T07:58:54.424Z,19.63
2016-02-29T07:59:54.410Z,19.65
2016-02-29T08:00:54.382Z,19.55
2016-02-29T08:01:54.368Z,19.54
2016-02-29T08:02:54.371Z,19.57
2016-02-29T08:03:54.342Z,19.58
2016-02-29T08:04:54.345Z,19.68
2016-02-29T08:05:54.302Z,19.66
2016-02-29T08:06:54.273Z,19.65
2016-02-29T08:07:54.259Z,19.66
2016-02-29T08:08:54.247Z,19.63
2016-02-29T08:09:54.234Z,19.61
2016-02-29T08:10:54.222Z,19.72
2016-02-29T08:11:54.209Z,19.73
2016-02-29T08:12:54.180Z,19.76
2016-02-29T08:13:54.167Z,19.84
2016-02-29T08:14:54.138Z,19.8
2016-02-29T08:15:54.125Z,19.8
2016-02-29T08:16:54.112Z,19.93
2016-02-29T08:17:54.083Z,19.93
2016-02-29T08:18:54.086Z,19.8
2016-02-29T08:19:54.074Z,19.91
2016-02-29T08:20:54.029Z,19.84
2016-02-29T08:21:54.016Z,19.8
2016-02-29T08:22:54.003Z,19.79
2016-02-29T08:23:53.991Z,19.78
2016-02-29T08:24:53.963Z,19.8
2016-02-29T08:25:53.949Z,19.75
2016-02-29T08:26:53.936Z,19.76
2016-02-29T08:27:53.939Z,19.84
2016-02-29T08:28:53.895Z,19.79
2016-02-29T08:29:53.865Z,19.68
2016-02-29T08:30:53.853Z,19.66
2016-02-29T08:31:53.841Z,19.7
2016-02-29T08:32:53.827Z,19.6
2016-02-29T08:33:53.815Z,19.7
2016-02-29T08:34:53.786Z,19.68
2016-02-29T08:35:53.773Z,19.6
2016-02-29T08:36:53.744Z,19.6
2016-02-29T08:37:53.731Z,19.57
2016-02-29T08:38:53.703Z,19.63
2016-02-29T08:39:53.690Z,19.58
2016-02-29T08:40:53.678Z,19.57
2016-02-29T08:41:53.664Z,19.57
2016-02-29T08:42:53.651Z,19.51
2016-02-29T08:43:53.622Z,19.35
2016-02-29T08:44:53.610Z,19.06
2016-02-29T08:45:53.581Z,18.84
2016-02-29T08:46:53.584Z,18.72
2016-02-29T08:47:53.539Z,18.61
2016-02-29T08:48:53.527Z,18.43
2016-02-29T08:49:53.513Z,18.36
2016-02-29T08:50:53.500Z,18.34
2016-02-29T08:51:53.487Z,18.57
2016-02-29T08:52:53.460Z,18.67
2016-02-29T08:53:53.447Z,18.74
2016-02-29T08:54:53.433Z,18.8
2016-02-29T08:55:53.436Z,18.97
2016-02-29T08:56:53.376Z,19.02
2016-02-29T08:57:53.363Z,19.1
2016-02-29T08:58:53.350Z,19.13
2016-02-29T08:59:53.337Z,19.18
2016-02-29T09:00:53.310Z,19.18
2016-02-29T09:01:53.312Z,19.29
2016-02-29T09:02:53.283Z,19.35
2016-02-29T09:03:53.254Z,19.25
2016-02-29T09:04:53.256Z,19.35
2016-02-29T09:05:53.061Z,19.33
2016-02-29T09:06:53.215Z,19.36
2016-02-29T09:07:53.186Z,19.38
2016-02-29T09:08:53.173Z,19.36
2016-02-29T09:09:53.160Z,19.35
2016-02-29T09:10:53.147Z,19.38
2016-02-29T09:11:53.118Z,19.39
2016-02-29T09:12:53.105Z,19.36
2016-02-29T09:13:53.077Z,19.46
2016-02-29T09:14:53.080Z,19.42
2016-02-29T09:15:53.052Z,19.43
2016-02-29T09:16:53.023Z,19.39
2016-02-29T09:17:53.009Z,19.42
2016-02-29T09:18:52.997Z,19.4
2016-02-29T09:19:52.969Z,19.4
2016-02-29T09:20:52.971Z,19.46
2016-02-29T09:21:52.927Z,19.4
2016-02-29T09:22:52.929Z,19.4
2016-02-29T09:23:52.917Z,19.39
2016-02-29T09:24:52.872Z,19.39
2016-02-29T09:25:52.859Z,19.38
2016-02-29T09:26:52.847Z,19.48
2016-02-29T09:27:52.849Z,19.51
2016-02-29T09:28:52.821Z,19.47
2016-02-29T09:29:52.792Z,19.4
2016-02-29T09:30:52.778Z,19.4
2016-02-29T09:31:52.750Z,19.39
2016-02-29T09:32:52.738Z,19.38
2016-02-29T09:33:52.725Z,19.48
2016-02-29T09:34:52.697Z,19.46
2016-02-29T09:35:52.683Z,19.43
2016-02-29T09:36:52.498Z,19.48
2016-02-29T09:37:52.642Z,19.42
2016-02-29T09:38:52.645Z,19.42
2016-02-29T09:39:52.631Z,19.48
2016-02-29T09:40:52.603Z,19.39
2016-02-29T09:41:52.558Z,19.5
2016-02-29T09:42:52.561Z,19.51
2016-02-29T09:43:52.532Z,19.51
2016-02-29T09:44:52.519Z,19.36
2016-02-29T09:45:52.491Z,19.51
2016-02-29T09:46:52.494Z,19.43
2016-02-29T10:16:22.668Z,19.51
2016-02-29T10:17:03.434Z,19.5
2016-02-29T10:18:03.436Z,19.48
2016-02-29T10:19:03.408Z,19.5
2016-02-29T10:20:03.410Z,19.53
2016-02-29T10:21:03.210Z,19.47
2016-02-29T10:22:03.337Z,19.5
2016-02-29T10:23:03.340Z,19.43
2016-02-29T10:24:03.311Z,19.48
2016-02-29T10:25:03.298Z,19.51
2016-02-29T10:26:03.270Z,19.48
2016-02-29T10:27:03.273Z,19.51
2016-02-29T10:28:03.244Z,19.54
2016-02-29T10:29:03.216Z,19.51
2016-02-29T10:30:03.203Z,19.48
2016-02-29T10:31:03.206Z,19.47
2016-02-29T10:32:03.177Z,19.48
2016-02-29T10:33:03.148Z,19.42
2016-02-29T10:34:03.119Z,19.54
2016-02-29T10:35:03.122Z,19.47
2016-02-29T10:36:03.110Z,19.48
2016-02-29T10:37:03.081Z,19.4
2016-02-29T10:38:03.052Z,19.53
2016-02-29T10:39:03.383Z,19.48
2016-02-29T10:40:03.027Z,19.53
2016-02-29T10:41:02.998Z,19.47
2016-02-29T10:42:03.001Z,19.46
2016-02-29T10:43:02.972Z,19.39
2016-02-29T10:44:02.959Z,19.53
2016-02-29T10:45:02.946Z,19.5
2016-02-29T10:46:02.918Z,19.51
2016-02-29T10:47:02.890Z,19.39
2016-02-29T10:48:02.892Z,19.38
2016-02-29T10:49:02.863Z,19.42
2016-02-29T10:50:02.866Z,19.42
2016-02-29T10:51:02.821Z,19.5
2016-02-29T10:52:02.840Z,19.47
2016-02-29T10:53:02.796Z,19.51
2016-02-29T10:54:02.767Z,19.47
2016-02-29T10:55:02.770Z,19.5
2016-02-29T10:56:02.757Z,19.42
2016-02-29T10:57:02.712Z,19.5
2016-02-29T10:58:02.715Z,19.51
2016-02-29T10:59:02.672Z,19.5
2016-02-29T11:00:02.674Z,19.53
2016-02-29T11:01:02.645Z,19.51
2016-02-29T11:02:02.633Z,19.5
2016-02-29T11:03:02.604Z,19.51
2016-02-29T11:04:02.591Z,19.5
2016-02-29T11:05:02.563Z,19.47
2016-02-29T11:06:02.586Z,19.48
2016-02-29T11:07:02.538Z,19.43
2016-02-29T11:08:02.546Z,19.53
2016-02-29T11:09:02.475Z,19.5
2016-02-29T11:10:02.452Z,19.5
2016-02-29T11:11:02.411Z,19.51
2016-02-29T11:12:02.404Z,19.5
2016-02-29T11:13:02.372Z,19.53
2016-02-29T11:14:02.371Z,19.48
2016-02-29T11:15:02.322Z,19.5
2016-02-29T11:16:02.307Z,19.57
2016-02-29T11:17:02.274Z,19.53
2016-02-29T11:18:02.260Z,19.51
2016-02-29T11:19:02.245Z,19.55
2016-02-29T11:20:02.232Z,19.53
2016-02-29T11:21:02.217Z,19.48
2016-02-29T11:22:02.188Z,19.48
2016-02-29T11:23:02.190Z,19.53
2016-02-29T11:24:02.145Z,19.48
2016-02-29T11:25:02.131Z,19.46
2016-02-29T11:26:02.119Z,19.53
2016-02-29T11:27:02.089Z,19.43
2016-02-29T11:28:02.076Z,19.54
2016-02-29T11:29:02.046Z,19.5
2016-02-29T11:30:02.034Z,19.53
2016-02-29T11:31:02.020Z,19.55
2016-02-29T11:32:02.023Z,19.46
2016-02-29T11:33:01.978Z,19.53
2016-02-29T11:34:01.950Z,19.5
2016-02-29T11:35:01.937Z,19.57
2016-02-29T11:36:01.939Z,19.51
2016-02-29T11:37:01.911Z,19.53
2016-02-29T11:38:01.899Z,19.58
2016-02-29T11:39:01.869Z,19.61
2016-02-29T11:40:01.857Z,19.46
2016-02-29T11:41:01.844Z,19.51
2016-02-29T11:42:01.830Z,19.55
2016-02-29T11:43:01.833Z,19.53
2016-02-29T11:44:01.790Z,19.51
2016-02-29T11:45:01.776Z,19.51
2016-02-29T11:46:01.748Z,19.47
2016-02-29T11:47:01.734Z,19.47
2016-02-29T11:48:01.707Z,19.47
2016-02-29T11:49:01.693Z,19.6
2016-02-29T11:50:01.681Z,19.65
2016-02-29T11:51:01.652Z,19.53
2016-02-29T11:52:01.639Z,19.55
2016-02-29T11:53:01.626Z,19.58
2016-02-29T11:54:01.598Z,19.5
2016-02-29T11:55:01.585Z,19.54
2016-02-29T11:56:01.431Z,19.54
2016-02-29T11:57:01.543Z,19.53
2016-02-29T11:58:01.545Z,19.51
2016-02-29T11:59:01.501Z,19.61
2016-02-29T12:00:01.489Z,19.55
2016-02-29T12:01:01.492Z,19.48
2016-02-29T12:02:01.463Z,19.55
2016-02-29T12:03:01.450Z,19.57
2016-02-29T12:04:01.421Z,19.48
2016-02-29T12:05:01.408Z,19.53
2016-02-29T12:06:01.411Z,19.47
2016-02-29T12:07:01.383Z,19.57
2016-02-29T12:08:01.386Z,19.58
2016-02-29T12:09:01.341Z,19.48
2016-02-29T12:10:01.328Z,19.4
2016-02-29T12:11:01.299Z,19.53
2016-02-29T12:12:01.286Z,19.46
2016-02-29T12:13:01.258Z,19.57
2016-02-29T12:14:01.230Z,19.54
2016-02-29T12:15:01.216Z,19.57
2016-02-29T12:16:01.204Z,19.54
2016-02-29T12:17:01.191Z,19.4
2016-02-29T12:18:01.178Z,19.58
2016-02-29T12:19:01.165Z,19.58
2016-02-29T12:20:01.137Z,19.51
2016-02-29T12:21:01.108Z,19.54
2016-02-29T12:22:01.095Z,19.55
2016-02-29T12:23:01.082Z,19.43
2016-02-29T12:24:01.054Z,19.51
2016-02-29T12:25:01.071Z,19.55
2016-02-29T12:26:01.028Z,19.55
2016-02-29T12:27:00.998Z,19.54
2016-02-29T12:28:00.986Z,19.51
2016-02-29T12:29:00.957Z,19.55
2016-02-29T12:30:00.788Z,19.55
2016-02-29T12:31:00.931Z,19.5
2016-02-29T12:32:00.919Z,19.42
2016-02-29T12:33:00.889Z,19.58
2016-02-29T12:34:00.878Z,19.58
2016-02-29T12:35:00.864Z,19.6
2016-02-29T12:36:00.851Z,19.53
2016-02-29T12:37:00.839Z,19.58
2016-02-29T12:38:00.810Z,19.54
2016-02-29T12:39:00.797Z,19.61
2016-02-29T12:40:00.768Z,19.58
2016-02-29T12:41:00.740Z,19.57
2016-02-29T12:42:00.727Z,19.43
2016-02-29T12:43:00.730Z,19.57
2016-02-29T12:44:00.701Z,19.61
2016-02-29T12:45:00.688Z,19.55
2016-02-29T12:46:00.659Z,19.61
2016-02-29T12:47:00.663Z,19.57
2016-02-29T12:48:00.649Z,19.54
2016-02-29T12:49:00.605Z,19.51
2016-02-29T12:50:00.592Z,19.58
2016-02-29T12:51:00.579Z,19.53
2016-02-29T12:52:00.551Z,19.48
2016-02-29T12:53:00.538Z,19.54
2016-02-29T12:54:00.524Z,19.54
2016-02-29T12:55:00.574Z,19.51
2016-02-29T12:56:00.484Z,19.5
2016-02-29T12:57:00.470Z,19.58
2016-02-29T12:58:00.442Z,19.54
2016-02-29T12:59:00.428Z,19.54
2016-02-29T13:00:00.415Z,19.57
2016-02-29T13:01:00.418Z,19.51
2016-02-29T13:02:00.375Z,19.57
2016-02-29T13:03:00.361Z,19.48
2016-02-29T13:04:00.333Z,19.55
2016-02-29T13:05:00.336Z,19.53
2016-02-29T13:06:00.313Z,19.5
2016-02-29T13:07:00.300Z,19.54
2016-02-29T13:08:00.271Z,19.43
2016-02-29T13:09:00.273Z,19.58
2016-02-29T13:10:00.230Z,19.42
2016-02-29T13:11:00.217Z,19.54
2016-02-29T13:12:00.204Z,19.53
2016-02-29T13:13:00.176Z,19.48
2016-02-29T13:14:00.162Z,19.58
2016-02-29T13:15:00.150Z,19.51
2016-02-29T13:16:00.121Z,19.53
2016-02-29T13:17:00.108Z,19.51
2016-02-29T13:18:00.095Z,19.46
2016-02-29T13:19:00.067Z,19.57
2016-02-29T13:20:00.053Z,19.58
2016-02-29T13:21:00.041Z,19.53
2016-02-29T13:22:00.027Z,19.55
2016-02-29T13:22:59.999Z,19.43
2016-02-29T13:23:59.986Z,19.63